West Kingston, Rhode Island
Current Conditions -  °F | °C
As of 6:53 AM on Thursday 23 Oct 2014 (Local Time) from KUUU Reporting Station
Overcast Overcast  
Wind Chill: 56°   Ceiling: 800
Heat Index: 56°   Visibility: 10mi
Dew Point: 52°   Wind: 16mph
Humidity: 87%   Direction: 20°NNE
Pressure: 29.56"   Gusts: 28mph
Location:  41.48°N, 71.55°W
Report Text: KUUU 231053Z AUTO 02014G24KT 10SM OVC008 13/11 A2956 RMK AO2 PK WND 01027/1035 SLP008 T01330111
Loading
Personal Weather Stations






























Interactive Weather Map New forecast layout! Learn more

10-Day Weather Forecast

Advertisements
Track Severe Weather on mobile